Time;durP1;ratioP1;P1;durP2;ratioP2;P2;SDS_P1;SDS_P2;PMS_P1;PMS_P2;Temp;Humidity;BMP_temperature;BMP_pressure;BME280_temperature;BME280_humidity;BME280_pressure;Samples;Min_cycle;Max_cycle;Signal;HPM_P1;HPM_P2
2021/11/04 00:02:27;;;;;;;4.10;3.90;;;10.70;99.90;;;;;;10289830;28;20570;-83
2021/11/04 00:07:29;;;;;;;4.33;3.97;;;10.70;99.90;;;;;;10286282;28;20598;-83
2021/11/04 00:12:31;;;;;;;3.90;3.60;;;10.70;99.90;;;;;;10321581;28;20207;-83
2021/11/04 00:17:36;;;;;;;4.23;3.90;;;10.70;99.90;;;;;;10284172;28;20223;-83
2021/11/04 00:22:38;;;;;;;3.23;3.03;;;10.70;99.90;;;;;;10285835;28;20219;-82
2021/11/04 00:27:40;;;;;;;2.87;2.67;;;10.70;99.90;;;;;;10277926;28;20245;-84
2021/11/04 00:32:49;;;;;;;3.53;3.30;;;10.70;99.90;;;;;;10271296;28;20192;-85
2021/11/04 00:37:52;;;;;;;3.27;3.07;;;10.80;99.90;;;;;;10291965;28;20646;-85
2021/11/04 00:42:54;;;;;;;2.90;2.80;;;10.80;99.90;;;;;;10290300;28;20314;-82
2021/11/04 00:47:57;;;;;;;2.40;2.30;;;10.90;99.90;;;;;;10297565;28;20240;-83
2021/11/04 00:52:59;;;;;;;2.23;2.13;;;10.90;99.90;;;;;;10310252;28;20282;-85
2021/11/04 00:58:02;;;;;;;2.40;2.30;;;10.80;99.90;;;;;;10313440;28;20594;-84
2021/11/04 01:03:06;;;;;;;2.43;2.23;;;10.80;99.90;;;;;;10289923;28;20223;-81
2021/11/04 01:08:08;;;;;;;2.40;2.30;;;10.80;99.90;;;;;;10285707;28;20231;-83
2021/11/04 01:13:10;;;;;;;2.43;2.30;;;10.80;99.90;;;;;;10302429;28;20204;-84
2021/11/04 01:18:14;;;;;;;2.27;2.17;;;10.80;99.90;;;;;;10312224;28;20230;-85
2021/11/04 01:23:16;;;;;;;2.40;2.30;;;10.80;99.90;;;;;;10311379;28;20219;-84
2021/11/04 01:28:18;;;;;;;2.50;2.10;;;10.80;99.90;;;;;;10292346;28;20237;-84
2021/11/04 01:33:21;;;;;;;2.33;2.23;;;10.80;99.90;;;;;;10328379;28;20686;-85
2021/11/04 01:38:24;;;;;;;3.07;2.87;;;10.80;99.90;;;;;;10317290;28;20221;-85
2021/11/04 01:43:27;;;;;;;2.13;2.03;;;10.90;99.90;;;;;;10312524;28;20208;-85
2021/11/04 01:48:31;;;;;;;2.70;2.60;;;10.90;99.90;;;;;;10314737;28;20231;-83
2021/11/04 01:53:33;;;;;;;2.30;2.20;;;10.90;99.90;;;;;;10328910;28;20566;-85
2021/11/04 01:58:35;;;;;;;2.50;2.40;;;10.90;99.90;;;;;;10304669;28;20263;-83
2021/11/04 02:03:44;;;;;;;3.13;2.97;;;10.90;99.90;;;;;;10309121;28;20349;-85
2021/11/04 02:08:53;;;;;;;2.80;2.70;;;10.90;99.90;;;;;;10312138;28;20733;-84
2021/11/04 02:13:59;;;;;;;2.10;2.00;;;10.90;99.90;;;;;;10295143;28;20204;-84
2021/11/04 02:19:19;;;;;;;2.70;2.50;;;10.80;99.90;;;;;;10301455;28;20596;-84
2021/11/04 02:24:28;;;;;;;2.60;2.50;;;10.70;99.90;;;;;;10285747;28;20317;-85
2021/11/04 02:29:32;;;;;;;2.70;2.60;;;10.60;99.90;;;;;;10307602;28;20231;-85
2021/11/04 02:34:37;;;;;;;3.00;2.80;;;10.40;99.90;;;;;;10299088;28;20204;-83
2021/11/04 02:39:39;;;;;;;3.10;2.90;;;10.40;99.90;;;;;;10289078;28;20710;-84
2021/11/04 02:44:43;;;;;;;2.90;2.80;;;10.30;99.90;;;;;;10292246;28;20219;-83
2021/11/04 02:49:48;;;;;;;2.80;2.60;;;10.30;99.90;;;;;;10315338;28;20224;-82
2021/11/04 02:54:54;;;;;;;2.73;2.63;;;10.40;99.90;;;;;;10324015;28;20209;-81
2021/11/04 02:59:58;;;;;;;3.13;2.93;;;10.40;99.90;;;;;;10315874;28;20232;-84
2021/11/04 03:05:00;;;;;;;2.40;2.30;;;10.30;99.90;;;;;;10297127;28;20623;-83
2021/11/04 03:10:03;;;;;;;2.13;2.03;;;10.30;99.90;;;;;;10312938;28;20226;-84
2021/11/04 03:15:09;;;;;;;1.80;1.80;;;10.30;99.90;;;;;;10312430;28;20204;-85
2021/11/04 03:20:12;;;;;;;2.33;2.23;;;10.30;99.90;;;;;;10311930;28;20243;-85
2021/11/04 03:25:15;;;;;;;2.23;2.13;;;10.30;99.90;;;;;;10292924;28;20223;-83
2021/11/04 03:30:24;;;;;;;1.97;1.97;;;10.30;99.90;;;;;;10302829;28;20259;-85
2021/11/04 03:35:28;;;;;;;2.33;2.23;;;10.30;99.90;;;;;;10295967;28;20273;-85
2021/11/04 03:40:31;;;;;;;1.80;1.80;;;10.30;99.90;;;;;;10302002;28;20227;-84
2021/11/04 03:45:36;;;;;;;2.10;2.00;;;10.40;99.90;;;;;;10314782;28;20223;-85
2021/11/04 03:50:40;;;;;;;2.30;2.20;;;10.30;99.90;;;;;;10289335;28;20230;-85
2021/11/04 03:55:43;;;;;;;1.63;1.50;;;10.30;99.90;;;;;;10318246;28;20219;-85
2021/11/04 04:00:46;;;;;;;2.10;2.00;;;10.20;99.90;;;;;;10308030;28;20602;-83
2021/11/04 04:06:00;;;;;;;2.33;2.00;;;10.20;99.90;;;;;;10297731;28;20254;-85
2021/11/04 04:11:03;;;;;;;1.20;1.20;;;10.20;99.90;;;;;;10330422;28;20568;-83
2021/11/04 04:16:06;;;;;;;2.30;2.20;;;10.20;99.90;;;;;;10291550;28;20679;-85
2021/11/04 04:21:08;;;;;;;2.03;1.93;;;10.10;99.90;;;;;;10310345;28;20314;-85
2021/11/04 04:26:11;;;;;;;3.27;2.30;;;10.10;99.90;;;;;;10313633;28;20608;-85
2021/11/04 04:31:15;;;;;;;2.47;2.37;;;10.10;99.90;;;;;;10300350;28;20209;-85
2021/11/04 04:36:17;;;;;;;2.27;2.07;;;10.10;99.90;;;;;;10291339;28;20199;-85
2021/11/04 04:41:19;;;;;;;2.37;2.27;;;10.10;99.90;;;;;;10301278;28;20582;-84
2021/11/04 04:46:23;;;;;;;2.20;2.10;;;10.00;99.90;;;;;;10304579;28;20235;-83
2021/11/04 04:51:25;;;;;;;2.30;2.20;;;10.00;99.90;;;;;;10328718;28;20572;-83
2021/11/04 04:56:30;;;;;;;2.50;2.40;;;10.00;99.90;;;;;;10313567;28;20203;-83
2021/11/04 05:01:34;;;;;;;2.60;2.50;;;10.00;99.90;;;;;;10304614;28;20211;-82
2021/11/04 05:06:36;;;;;;;1.43;1.43;;;10.00;99.90;;;;;;10324623;28;20223;-85
2021/11/04 05:11:38;;;;;;;3.23;3.03;;;10.10;99.90;;;;;;10319530;28;20207;-84
2021/11/04 05:16:42;;;;;;;3.27;3.07;;;10.10;99.90;;;;;;10292158;28;20242;-84
2021/11/04 05:21:44;;;;;;;1.80;1.80;;;10.10;99.90;;;;;;10315910;28;20301;-85
2021/11/04 05:26:47;;;;;;;11.17;9.73;;;10.00;99.90;;;;;;10302719;28;20278;-84
2021/11/04 05:31:51;;;;;;;3.47;3.27;;;10.00;99.90;;;;;;10305777;28;20211;-83
2021/11/04 05:36:53;;;;;;;2.87;2.40;;;10.00;99.90;;;;;;10306703;28;20234;-84
2021/11/04 05:41:55;;;;;;;2.63;1.67;;;10.00;99.90;;;;;;10338037;28;20262;-85
2021/11/04 05:46:59;;;;;;;2.23;2.13;;;9.90;99.90;;;;;;10328020;28;20231;-84
2021/11/04 05:52:01;;;;;;;1.90;1.50;;;9.90;99.90;;;;;;10308600;28;20691;-86
2021/11/04 05:57:10;;;;;;;2.30;2.20;;;9.90;99.90;;;;;;10298018;28;20690;-84
2021/11/04 06:02:29;;;;;;;2.20;2.00;;;9.80;99.90;;;;;;10290718;28;20906;-82
2021/11/04 06:07:31;;;;;;;1.70;1.70;;;9.80;99.90;;;;;;10322115;28;20234;-85
2021/11/04 06:12:34;;;;;;;1.80;1.77;;;9.80;99.90;;;;;;10300624;28;20199;-84
2021/11/04 06:17:37;;;;;;;3.70;3.40;;;9.70;99.90;;;;;;10314293;28;20322;-81
2021/11/04 06:22:39;;;;;;;2.10;2.00;;;9.70;99.90;;;;;;10291270;28;20694;-84
2021/11/04 06:27:41;;;;;;;1.40;1.33;;;9.70;99.90;;;;;;10294041;28;20583;-82
2021/11/04 06:32:45;;;;;;;1.97;1.87;;;9.80;99.90;;;;;;10302618;28;20207;-82
2021/11/04 06:37:47;;;;;;;1.80;1.80;;;9.70;99.90;;;;;;10316799;28;20215;-84
2021/11/04 06:42:49;;;;;;;1.87;1.77;;;9.80;99.90;;;;;;10305309;28;20309;-84
2021/11/04 06:47:55;;;;;;;1.80;1.80;;;9.80;99.90;;;;;;10311491;28;20242;-84
2021/11/04 06:53:05;;;;;;;2.33;2.23;;;9.80;99.90;;;;;;10319421;28;20206;-83
2021/11/04 06:58:13;;;;;;;2.20;2.10;;;9.80;99.90;;;;;;10309808;28;20438;-84
2021/11/04 07:03:24;;;;;;;1.60;1.60;;;9.80;99.90;;;;;;10310434;28;20218;-84
2021/11/04 07:08:27;;;;;;;3.47;3.17;;;9.90;99.90;;;;;;10335068;28;20665;-83
2021/11/04 07:13:31;;;;;;;2.17;2.07;;;9.90;99.90;;;;;;10335503;28;20294;-84
2021/11/04 07:18:37;;;;;;;2.20;2.10;;;9.90;99.90;;;;;;10313280;28;20329;-83
2021/11/04 07:23:41;;;;;;;2.10;2.00;;;9.90;99.90;;;;;;10292794;28;20222;-83
2021/11/04 07:28:45;;;;;;;2.27;2.17;;;10.00;99.90;;;;;;10300482;28;20255;-83
2021/11/04 07:33:50;;;;;;;2.07;1.97;;;9.90;99.90;;;;;;10277608;28;20211;-82
2021/11/04 07:38:52;;;;;;;2.60;2.50;;;9.90;99.90;;;;;;10254947;28;20281;-83
2021/11/04 07:43:56;;;;;;;3.17;2.97;;;9.90;99.90;;;;;;10290724;28;20569;-82
2021/11/04 07:49:00;;;;;;;2.40;2.30;;;9.90;99.90;;;;;;10276822;28;20754;-83
2021/11/04 07:54:02;;;;;;;2.47;2.37;;;10.00;99.90;;;;;;10277841;28;20291;-84
2021/11/04 07:59:04;;;;;;;2.97;2.70;;;10.00;99.90;;;;;;10300248;28;20301;-84
2021/11/04 08:04:08;;;;;;;3.40;2.73;;;10.00;99.90;;;;;;10283045;28;20227;-84
2021/11/04 08:09:10;;;;;;;2.60;2.50;;;10.00;99.90;;;;;;10299166;28;20242;-83
2021/11/04 08:14:12;;;;;;;2.83;2.73;;;10.10;99.90;;;;;;10298255;28;20288;-82
2021/11/04 08:19:15;;;;;;;3.53;3.20;;;10.00;99.90;;;;;;10296152;28;20344;-82
2021/11/04 08:24:18;;;;;;;3.30;3.10;;;9.90;99.90;;;;;;10295651;28;20234;-83
2021/11/04 08:29:20;;;;;;;3.40;3.20;;;9.80;99.90;;;;;;10319180;28;20303;-83
2021/11/04 08:34:23;;;;;;;4.00;3.80;;;9.70;99.90;;;;;;10320756;28;20208;-81
2021/11/04 08:39:25;;;;;;;3.60;3.30;;;9.60;99.90;;;;;;10300425;28;20221;-83
2021/11/04 08:44:28;;;;;;;3.53;3.23;;;9.60;99.90;;;;;;10321582;28;20218;-82
2021/11/04 08:49:32;;;;;;;4.00;3.70;;;9.60;99.90;;;;;;10297597;28;20231;-84
2021/11/04 08:54:34;;;;;;;3.83;3.60;;;9.60;99.90;;;;;;10297775;28;20251;-83
2021/11/04 08:59:38;;;;;;;4.43;3.73;;;9.60;99.90;;;;;;10297271;28;20644;-83
2021/11/04 09:04:43;;;;;;;3.83;3.60;;;9.60;99.90;;;;;;10302970;28;20230;-84
2021/11/04 09:09:46;;;;;;;3.60;3.37;;;9.60;99.90;;;;;;10338078;28;20235;-82
2021/11/04 09:14:48;;;;;;;3.77;3.57;;;9.60;99.90;;;;;;10302699;28;20217;-83
2021/11/04 09:19:52;;;;;;;3.80;3.57;;;9.70;99.90;;;;;;10303826;28;20610;-83
2021/11/04 09:24:56;;;;;;;6.30;3.70;;;9.70;99.90;;;;;;10312005;28;20223;-82
2021/11/04 09:29:58;;;;;;;3.70;3.40;;;9.80;99.90;;;;;;10317735;28;20224;-83
2021/11/04 09:35:03;;;;;;;3.53;3.33;;;9.80;99.90;;;;;;10303020;28;20235;-82
2021/11/04 09:40:07;;;;;;;3.53;3.33;;;9.80;99.90;;;;;;10295083;28;20231;-84
2021/11/04 09:45:09;;;;;;;3.17;2.97;;;9.80;99.90;;;;;;10305821;28;20291;-83
2021/11/04 09:50:16;;;;;;;3.20;3.03;;;9.80;99.90;;;;;;10300626;28;20322;-83
2021/11/04 09:55:22;;;;;;;2.90;2.73;;;9.90;99.90;;;;;;10315268;28;20227;-82
2021/11/04 10:00:34;;;;;;;2.63;2.47;;;9.90;99.90;;;;;;10292746;28;20250;-83
2021/11/04 10:05:51;;;;;;;2.40;2.30;;;9.90;99.90;;;;;;10301140;28;20222;-83
2021/11/04 10:11:05;;;;;;;4.10;2.37;;;9.90;99.90;;;;;;10296053;28;20224;-82
2021/11/04 10:16:08;;;;;;;2.40;2.30;;;9.90;99.90;;;;;;10299978;28;20191;-83
2021/11/04 10:21:12;;;;;;;2.47;2.27;;;9.90;99.90;;;;;;10298162;28;20231;-84
2021/11/04 10:26:17;;;;;;;1.93;1.83;;;10.00;99.90;;;;;;10308342;28;20227;-83
2021/11/04 10:31:21;;;;;;;2.03;1.93;;;9.90;99.90;;;;;;10312619;28;20217;-84
2021/11/04 10:36:26;;;;;;;2.10;2.00;;;9.90;99.90;;;;;;10306553;28;20307;-85
2021/11/04 10:41:31;;;;;;;2.03;1.93;;;9.90;99.90;;;;;;10330256;28;20266;-85
2021/11/04 10:46:41;;;;;;;2.53;2.33;;;9.90;99.90;;;;;;10305549;28;20235;-85
2021/11/04 10:51:45;;;;;;;3.20;3.00;;;10.00;99.90;;;;;;10332370;28;20200;-85
2021/11/04 10:56:52;;;;;;;2.30;2.20;;;10.00;99.90;;;;;;10294016;28;20231;-85
2021/11/04 11:01:55;;;;;;;2.60;2.50;;;10.00;99.90;;;;;;10342670;28;20261;-85
2021/11/04 11:06:59;;;;;;;2.53;2.43;;;10.10;99.90;;;;;;10309633;28;20257;-84
2021/11/04 11:12:03;;;;;;;3.07;2.97;;;10.20;99.90;;;;;;10310163;28;20217;-83
2021/11/04 11:17:07;;;;;;;2.77;2.57;;;10.30;99.90;;;;;;10321565;28;20703;-85
2021/11/04 11:22:12;;;;;;;2.80;2.60;;;10.30;99.90;;;;;;10307165;28;20215;-83
2021/11/04 11:27:17;;;;;;;3.00;2.70;;;10.40;99.90;;;;;;10309160;28;20250;-84
2021/11/04 11:32:21;;;;;;;3.20;3.00;;;10.40;99.90;;;;;;10327242;28;20660;-84
2021/11/04 11:37:25;;;;;;;3.83;3.63;;;10.50;99.90;;;;;;10328074;28;20737;-83
2021/11/04 11:42:28;;;;;;;3.67;3.47;;;10.40;99.90;;;;;;10341558;28;20671;-85
2021/11/04 11:47:39;;;;;;;4.50;4.20;;;10.40;99.90;;;;;;10311226;28;20234;-83
2021/11/04 11:52:54;;;;;;;4.50;4.20;;;10.40;99.90;;;;;;10309314;28;20298;-83
2021/11/04 11:58:22;;;;;;;5.27;4.97;;;10.40;99.90;;;;;;10308456;28;20241;-82
2021/11/04 12:03:55;;;;;;;5.20;4.80;;;10.40;99.90;;;;;;10293917;28;20199;-86
2021/11/04 12:09:00;;;;;;;6.57;5.97;;;10.50;99.90;;;;;;10290233;28;20785;-84
2021/11/04 12:14:30;;;;;;;7.23;6.60;;;10.50;99.90;;;;;;10319198;28;20262;-85
2021/11/04 12:19:33;;;;;;;7.10;6.50;;;10.40;99.90;;;;;;10316764;28;20646;-86
2021/11/04 12:24:44;;;;;;;7.10;6.60;;;10.40;99.90;;;;;;10301111;28;20249;-86
2021/11/04 12:29:46;;;;;;;5.93;5.53;;;10.50;99.90;;;;;;10311357;28;20230;-85
2021/11/04 12:34:54;;;;;;;6.97;6.47;;;10.60;99.90;;;;;;10311873;28;20208;-86
2021/11/04 12:39:59;;;;;;;7.53;6.93;;;10.60;99.90;;;;;;10296439;28;20250;-85
2021/11/04 12:45:02;;;;;;;7.27;6.67;;;10.70;99.90;;;;;;10337030;28;20215;-84
2021/11/04 12:50:04;;;;;;;8.33;7.73;;;10.80;99.90;;;;;;10290562;28;20224;-85
2021/11/04 12:55:09;;;;;;;7.40;6.90;;;10.90;99.90;;;;;;10309029;28;20203;-85
2021/11/04 13:00:15;;;;;;;7.30;6.70;;;10.90;99.90;;;;;;10330452;28;20231;-86
2021/11/04 13:05:19;;;;;;;7.57;6.97;;;11.00;99.90;;;;;;10309881;28;20411;-86
2021/11/04 13:10:26;;;;;;;7.67;7.13;;;10.90;99.90;;;;;;10307079;28;20234;-86
2021/11/04 13:15:29;;;;;;;7.70;7.10;;;11.00;99.90;;;;;;10299286;28;20485;-86
2021/11/04 13:20:33;;;;;;;8.57;7.90;;;11.00;99.90;;;;;;10292035;28;20238;-84
2021/11/04 13:25:39;;;;;;;8.40;7.80;;;11.10;99.90;;;;;;10291026;28;20212;-85
2021/11/04 13:30:44;;;;;;;10.10;9.30;;;11.10;99.90;;;;;;10310071;28;20227;-85
2021/11/04 13:35:47;;;;;;;12.23;11.13;;;11.10;99.90;;;;;;10294005;28;20392;-86
2021/11/04 13:40:54;;;;;;;8.90;8.20;;;11.10;99.90;;;;;;10288843;28;20220;-85
2021/11/04 13:46:06;;;;;;;8.53;7.93;;;11.10;99.90;;;;;;10324043;28;20267;-85
2021/11/04 13:51:08;;;;;;;8.80;8.10;;;11.10;99.90;;;;;;10310813;28;20364;-85
2021/11/04 13:56:13;;;;;;;9.37;8.67;;;11.20;99.90;;;;;;10290356;28;20196;-86
2021/11/04 14:01:16;;;;;;;9.40;8.70;;;11.10;99.90;;;;;;10295915;28;20207;-85
2021/11/04 14:06:18;;;;;;;7.57;7.00;;;11.10;99.90;;;;;;10294713;28;20314;-85
2021/11/04 14:11:28;;;;;;;7.77;7.13;;;11.10;99.90;;;;;;10315873;28;20239;-86
2021/11/04 14:16:32;;;;;;;7.10;6.50;;;11.10;99.90;;;;;;10302244;28;20204;-85
2021/11/04 14:21:36;;;;;;;7.43;6.80;;;11.00;99.90;;;;;;10309674;28;20676;-85
2021/11/04 14:26:39;;;;;;;6.80;6.30;;;11.10;99.90;;;;;;10307610;28;20239;-85
2021/11/04 14:31:45;;;;;;;7.93;7.30;;;11.10;99.90;;;;;;10303576;28;20683;-85
2021/11/04 14:36:48;;;;;;;7.00;6.50;;;11.10;99.90;;;;;;10310663;28;20239;-83
2021/11/04 14:41:52;;;;;;;7.20;6.60;;;11.20;99.90;;;;;;10311961;28;20282;-85
2021/11/04 14:46:55;;;;;;;7.53;6.93;;;11.10;99.90;;;;;;10309745;28;20259;-85
2021/11/04 14:51:57;;;;;;;7.43;6.93;;;11.10;99.90;;;;;;10319733;28;20286;-83
2021/11/04 14:57:00;;;;;;;7.33;6.70;;;11.20;99.90;;;;;;10306523;28;20616;-85
2021/11/04 15:02:02;;;;;;;5.60;5.30;;;11.20;99.90;;;;;;10313148;28;20647;-87
2021/11/04 15:07:04;;;;;;;6.90;6.40;;;11.20;99.90;;;;;;10347319;28;20258;-83
2021/11/04 15:12:10;;;;;;;6.63;6.17;;;11.20;99.90;;;;;;10308593;28;20243;-84
2021/11/04 15:17:12;;;;;;;5.13;4.83;;;11.20;99.90;;;;;;10290274;28;20692;-84
2021/11/04 15:22:14;;;;;;;4.30;4.00;;;11.10;99.90;;;;;;10301102;28;20214;-83
2021/11/04 15:27:18;;;;;;;4.33;4.03;;;11.00;99.90;;;;;;10305753;28;20238;-84
2021/11/04 15:32:20;;;;;;;3.80;3.60;;;11.00;99.90;;;;;;10323436;28;20679;-83
2021/11/04 15:37:22;;;;;;;3.33;3.13;;;11.00;99.90;;;;;;10301758;28;20242;-82
2021/11/04 15:42:26;;;;;;;3.50;3.30;;;10.90;99.90;;;;;;10316652;28;20621;-84
2021/11/04 15:47:31;;;;;;;3.00;2.90;;;10.80;99.90;;;;;;10322368;28;20725;-83
2021/11/04 15:52:33;;;;;;;3.63;3.43;;;10.70;99.90;;;;;;10322153;28;20238;-84
2021/11/04 15:57:37;;;;;;;3.50;3.30;;;10.60;99.90;;;;;;10319400;28;20602;-84
2021/11/04 16:02:39;;;;;;;3.07;2.87;;;10.60;99.90;;;;;;10323067;28;20289;-85
2021/11/04 16:07:42;;;;;;;2.60;2.50;;;10.50;99.90;;;;;;10293260;28;20611;-84
2021/11/04 16:12:46;;;;;;;7.20;6.70;;;10.50;99.90;;;;;;10321502;28;20211;-83
2021/11/04 16:17:48;;;;;;;4.00;3.80;;;10.40;99.90;;;;;;10299911;28;20223;-87
2021/11/04 16:22:50;;;;;;;3.93;3.73;;;10.40;99.90;;;;;;10312577;28;20227;-84
2021/11/04 16:27:54;;;;;;;7.20;3.37;;;10.30;99.90;;;;;;10323074;28;20320;-83
2021/11/04 16:32:56;;;;;;;4.53;4.23;;;10.30;99.90;;;;;;10328944;28;20302;-83
2021/11/04 16:37:58;;;;;;;3.20;3.10;;;10.30;99.90;;;;;;10305120;28;20323;-84
2021/11/04 16:43:04;;;;;;;3.90;3.60;;;10.30;99.90;;;;;;10305837;28;20215;-83
2021/11/04 16:48:06;;;;;;;3.30;3.10;;;10.30;99.90;;;;;;10310920;28;20289;-81
2021/11/04 16:53:09;;;;;;;2.80;2.60;;;10.20;99.90;;;;;;10326426;28;20691;-81
2021/11/04 16:58:12;;;;;;;2.50;2.40;;;10.20;99.90;;;;;;10343289;28;20231;-86
2021/11/04 17:03:15;;;;;;;3.03;2.83;;;10.10;99.90;;;;;;10326833;28;20561;-81
2021/11/04 17:08:17;;;;;;;2.57;2.47;;;10.00;99.90;;;;;;10309254;28;20746;-81
2021/11/04 17:13:21;;;;;;;2.70;2.60;;;10.00;99.90;;;;;;10307642;28;20246;-83
2021/11/04 17:18:23;;;;;;;2.87;2.77;;;9.90;99.90;;;;;;10311195;28;20231;-82
2021/11/04 17:23:25;;;;;;;2.70;2.50;;;9.90;99.90;;;;;;10341253;28;20208;-82
2021/11/04 17:28:29;;;;;;;5.23;4.10;;;9.90;99.90;;;;;;10300502;28;20231;-82
2021/11/04 17:33:31;;;;;;;4.30;3.90;;;9.90;99.90;;;;;;10322726;28;20231;-84
2021/11/04 17:38:34;;;;;;;3.90;3.70;;;9.90;99.90;;;;;;10343036;28;20258;-81
2021/11/04 17:43:37;;;;;;;3.57;3.37;;;9.80;99.90;;;;;;10310611;28;20215;-83
2021/11/04 17:48:40;;;;;;;3.67;3.47;;;9.80;99.90;;;;;;10299728;28;20241;-83
2021/11/04 17:53:42;;;;;;;4.13;3.93;;;9.80;99.90;;;;;;10307380;28;20584;-84
2021/11/04 17:58:46;;;;;;;4.10;3.90;;;9.80;99.90;;;;;;10320079;28;20231;-83
2021/11/04 18:03:48;;;;;;;3.77;3.50;;;9.80;99.90;;;;;;10324701;28;20305;-82
2021/11/04 18:08:50;;;;;;;4.63;4.33;;;9.70;99.90;;;;;;10306481;28;20318;-82
2021/11/04 18:13:54;;;;;;;5.43;5.13;;;9.60;99.90;;;;;;10299772;28;20783;-82
2021/11/04 18:18:56;;;;;;;4.70;4.40;;;9.50;99.90;;;;;;10305860;28;20661;-82
2021/11/04 18:24:03;;;;;;;5.70;5.30;;;9.50;99.90;;;;;;10316269;28;20258;-81
2021/11/04 18:29:07;;;;;;;6.67;6.07;;;9.50;99.90;;;;;;10320220;28;20703;-81
2021/11/04 18:34:09;;;;;;;6.70;6.20;;;9.40;99.90;;;;;;10300643;28;20667;-82
2021/11/04 18:39:11;;;;;;;8.20;7.00;;;9.40;99.90;;;;;;10302756;28;20223;-81
2021/11/04 18:44:15;;;;;;;8.13;7.53;;;9.40;99.90;;;;;;10306234;28;20219;-82
2021/11/04 18:49:19;;;;;;;6.37;5.87;;;9.40;99.90;;;;;;10304798;28;20247;-82
2021/11/04 18:54:21;;;;;;;6.47;6.07;;;9.40;99.90;;;;;;10319761;28;20573;-82
2021/11/04 18:59:25;;;;;;;6.67;6.27;;;9.40;99.90;;;;;;10331346;28;20745;-82
2021/11/04 19:04:27;;;;;;;5.80;5.30;;;9.40;99.90;;;;;;10329963;28;20335;-82
2021/11/04 19:09:31;;;;;;;6.17;5.77;;;9.50;99.90;;;;;;10292234;28;20259;-82
2021/11/04 19:14:34;;;;;;;6.23;5.83;;;9.50;99.90;;;;;;10331930;28;20214;-85
2021/11/04 19:19:37;;;;;;;6.30;5.90;;;9.60;99.90;;;;;;10301192;28;20334;-85
2021/11/04 19:24:39;;;;;;;6.70;6.20;;;9.50;99.90;;;;;;10323229;28;20242;-84
2021/11/04 19:29:46;;;;;;;6.53;6.13;;;9.50;99.90;;;;;;10306766;28;20281;-84
2021/11/04 19:34:48;;;;;;;6.60;6.10;;;9.50;99.90;;;;;;10307377;28;20703;-84
2021/11/04 19:39:50;;;;;;;6.10;5.63;;;9.50;99.90;;;;;;10304166;28;20607;-86
2021/11/04 19:44:53;;;;;;;5.77;5.37;;;9.50;99.90;;;;;;10297745;28;20203;-85
2021/11/04 19:49:56;;;;;;;5.70;5.17;;;9.50;99.90;;;;;;10293371;28;20734;-85
2021/11/04 19:54:58;;;;;;;4.70;4.30;;;9.60;99.90;;;;;;10298009;28;20215;-85
2021/11/04 20:00:01;;;;;;;5.60;5.20;;;9.60;99.90;;;;;;10295297;28;20245;-85
2021/11/04 20:05:14;;;;;;;5.50;5.10;;;9.60;99.90;;;;;;10315226;28;20310;-85
2021/11/04 20:10:17;;;;;;;5.97;5.57;;;9.60;99.90;;;;;;10340486;28;20322;-87
2021/11/04 20:15:21;;;;;;;5.83;5.43;;;9.60;99.90;;;;;;10334470;28;20762;-83
2021/11/04 20:20:23;;;;;;;6.77;6.37;;;9.60;99.90;;;;;;10307028;28;20215;-86
2021/11/04 20:25:28;;;;;;;6.90;6.30;;;9.70;99.90;;;;;;10305611;28;20274;-86
2021/11/04 20:30:32;;;;;;;7.07;6.47;;;9.80;99.90;;;;;;10303292;28;20654;-85
2021/11/04 20:35:34;;;;;;;6.93;6.43;;;9.80;99.90;;;;;;10300520;28;20572;-84
2021/11/04 20:40:37;;;;;;;6.87;6.37;;;9.80;99.90;;;;;;10295357;28;20235;-84
2021/11/04 20:45:40;;;;;;;7.20;6.70;;;9.80;99.90;;;;;;10305308;28;20211;-85
2021/11/04 20:50:43;;;;;;;6.90;6.33;;;9.80;99.90;;;;;;10318032;28;20367;-85
2021/11/04 20:55:45;;;;;;;6.63;6.23;;;9.80;99.90;;;;;;10303006;28;20215;-86
2021/11/04 21:00:49;;;;;;;7.00;6.40;;;9.80;99.90;;;;;;10300317;28;20649;-85
2021/11/04 21:05:51;;;;;;;6.97;6.47;;;9.80;99.90;;;;;;10290976;28;20303;-84
2021/11/04 21:10:53;;;;;;;8.20;7.50;;;9.80;99.90;;;;;;10334495;28;20231;-85
2021/11/04 21:15:57;;;;;;;8.10;7.50;;;9.80;99.90;;;;;;10302282;28;20214;-84
2021/11/04 21:20:59;;;;;;;6.73;6.23;;;9.80;99.90;;;;;;10266782;28;20224;-86
2021/11/04 21:26:02;;;;;;;6.60;6.10;;;9.80;99.90;;;;;;10295255;28;20203;-85
2021/11/04 21:31:07;;;;;;;6.40;5.90;;;9.80;99.90;;;;;;10323674;28;20239;-86
2021/11/04 21:36:09;;;;;;;6.77;6.27;;;9.80;99.90;;;;;;10312196;28;20208;-85
2021/11/04 21:41:13;;;;;;;7.23;6.63;;;9.80;99.90;;;;;;10305930;28;20227;-86
2021/11/04 21:46:17;;;;;;;7.10;6.60;;;9.80;99.90;;;;;;10304294;28;20214;-87
2021/11/04 21:51:19;;;;;;;7.03;6.53;;;9.80;99.90;;;;;;10311189;28;20238;-85
2021/11/04 21:56:23;;;;;;;6.83;6.33;;;9.80;99.90;;;;;;10306421;28;20207;-84
2021/11/04 22:01:26;;;;;;;6.67;6.20;;;9.70;99.90;;;;;;10314405;28;20259;-84
2021/11/04 22:06:29;;;;;;;6.47;5.97;;;9.70;99.90;;;;;;10293227;28;20207;-85
2021/11/04 22:11:31;;;;;;;6.27;5.87;;;9.80;99.90;;;;;;10313350;28;20242;-84
2021/11/04 22:16:35;;;;;;;7.13;6.57;;;9.80;99.90;;;;;;10322976;28;20215;-86
2021/11/04 22:21:37;;;;;;;5.73;5.33;;;9.70;99.90;;;;;;10318105;28;20223;-85
2021/11/04 22:26:39;;;;;;;5.10;4.80;;;9.70;99.90;;;;;;10329222;28;20283;-82
2021/11/04 22:31:45;;;;;;;5.90;5.50;;;9.80;99.90;;;;;;10318965;28;20234;-79
2021/11/04 22:36:50;;;;;;;5.63;5.23;;;9.80;99.90;;;;;;10319624;28;20318;-81
2021/11/04 22:41:52;;;;;;;4.50;4.20;;;9.80;99.90;;;;;;10315086;28;20243;-81
2021/11/04 22:46:56;;;;;;;4.50;4.20;;;9.80;99.90;;;;;;10305526;28;20258;-81
2021/11/04 22:52:00;;;;;;;5.83;5.30;;;9.80;99.90;;;;;;10321747;28;20482;-79
2021/11/04 22:57:03;;;;;;;5.20;4.80;;;9.80;99.90;;;;;;10315388;28;20721;-81
2021/11/04 23:02:11;;;;;;;4.67;4.27;;;9.80;99.90;;;;;;10323230;28;20318;-82
2021/11/04 23:07:13;;;;;;;4.97;4.67;;;9.70;99.90;;;;;;10305370;28;20227;-80
2021/11/04 23:12:17;;;;;;;4.50;4.20;;;9.80;99.90;;;;;;10293017;28;20219;-81
2021/11/04 23:17:21;;;;;;;4.43;4.13;;;9.70;99.90;;;;;;10282722;28;20238;-81
2021/11/04 23:22:24;;;;;;;3.90;3.70;;;9.80;99.90;;;;;;10314327;28;20294;-81
2021/11/04 23:27:26;;;;;;;5.70;4.47;;;9.80;99.90;;;;;;10308612;28;20692;-81
2021/11/04 23:32:30;;;;;;;5.00;4.70;;;9.80;99.90;;;;;;10289421;28;20295;-80
2021/11/04 23:37:33;;;;;;;4.23;3.90;;;9.80;99.90;;;;;;10325238;28;20286;-81
2021/11/04 23:42:35;;;;;;;4.00;3.80;;;9.80;99.90;;;;;;10300824;28;20219;-81
2021/11/04 23:47:39;;;;;;;4.30;4.00;;;9.80;99.90;;;;;;10314745;28;20593;-82
2021/11/04 23:52:44;;;;;;;4.50;4.20;;;9.80;99.90;;;;;;10309446;28;20223;-81
2021/11/04 23:57:47;;;;;;;4.40;4.10;;;9.80;99.90;;;;;;10300854;23;20258;-84
